• Join FlightAware (Why Join?)
  • Login
  • US Flag 
07:18AM EDT


 

Airport Tracker/Info


-or-


 

Live Flight TrackerFlight Track Log ✈ N101WY ✈ 31-Jul-2013 ✈ KIWA - KCYS

Flight Track Log - Related Links

Times and Time Zones

All times are in EDT time to prevent confusion due to time zone crossing. See the N101WY flight status page for this flight to view local times or setup timezone preferences in your user account.

Time Position Orientation Groundspeed Altitude Reporting Facility
EDT Latitude Longitude Course Direction KTS MPH feet Rate Location/Type
05:37PM 33.3167 -111.6667 48° Northeast 143 165 2,300  Level Phoenix TRACON
05:38PM 33.3431 -111.6319 29° Northeast 201 231 4,600 2,580 Climbing Albuquerque Center
05:39PM 33.3625 -111.5714 69° East 218 251 7,900 3,120 Climbing Albuquerque Center
05:40PM 33.4175 -111.5258 35° Northeast 242 278 11,100 2,460 Climbing Albuquerque Center
05:41PM 33.4883 -111.5639 336° Northwest 289 333 13,000 900 Climbing Albuquerque Center
05:42PM 33.5650 -111.6186 329° Northwest 315 362 13,000  Level Albuquerque Center
05:43PM 33.6625 -111.6631 339° North 314 361 13,000 1,020 Level Albuquerque Center
05:44PM 33.7458 -111.6992 340° North 317 365 15,200 2,340 Climbing Albuquerque Center
05:45PM 33.8314 -111.7369 340° North 326 375 17,900 2,460 Climbing Albuquerque Center
05:46PM 33.9300 -111.7658 346° North 335 386 20,400 2,160 Climbing Albuquerque Center
05:47PM 34.0250 -111.7431 11° North 347 399 22,400 1,980 Climbing Albuquerque Center
05:48PM 34.1239 -111.6969 21° North 353 406 24,600 1,860 Climbing Albuquerque Center
05:49PM 34.2161 -111.6653 16° North 361 415 26,300 1,560 Climbing Albuquerque Center
05:50PM 34.3178 -111.6397 12° North 370 426 27,800 1,260 Climbing Albuquerque Center
05:51PM 34.4214 -111.6114 13° North 378 435 29,000 1,260 Climbing Albuquerque Center
05:52PM 34.5281 -111.5633 20° North 403 464 30,500 1,740 Climbing Albuquerque Center
05:53PM 34.6250 -111.5100 24° Northeast 391 450 32,600 2,040 Climbing Albuquerque Center
05:54PM 34.7322 -111.4286 32° Northeast 380 437 34,800 1,860 Climbing Albuquerque Center
05:55PM 34.8175 -111.3539 36° Northeast 379 436 36,500 1,020 Climbing Albuquerque Center
05:56PM 34.9064 -111.2772 35° Northeast 385 443 37,000 240 Climbing Albuquerque Center
05:57PM 34.9972 -111.1911 38° Northeast 407 468 37,000  Level Albuquerque Center
05:58PM 35.0864 -111.1089 37° Northeast 405 466 37,000  Level Albuquerque Center
05:59PM 35.1731 -111.0289 37° Northeast 397 457 37,000  Level Albuquerque Center
06:00PM 35.2594 -110.9475 38° Northeast 392 451 37,000  Level Albuquerque Center
06:01PM 35.3614 -110.8511 38° Northeast 388 447 37,000  Level Albuquerque Center
06:02PM 35.4489 -110.7714 37° Northeast 390 449 37,000  Level Albuquerque Center
06:03PM 35.5361 -110.6872 38° Northeast 395 455 37,000  Level Albuquerque Center
06:04PM 35.6239 -110.6036 38° Northeast 398 458 37,000  Level Albuquerque Center
06:05PM 35.7108 -110.5208 38° Northeast 398 458 37,000 180 Level Albuquerque Center
06:07PM 35.7983 -110.4367 38° Northeast 398 458 37,400 900 Climbing Albuquerque Center
06:08PM 35.8964 -110.3444 37° Northeast 399 459 38,900 780 Climbing Denver Center
06:09PM 35.9861 -110.2578 38° Northeast 402 463 39,000  Climbing Denver Center
06:10PM 36.0786 -110.1686 38° Northeast 408 470 39,000  Level Denver Center
06:11PM 36.1883 -110.0639 38° Northeast 414 476 39,000  Level Denver Center
06:12PM 36.2775 -109.9778 38° Northeast 412 474 39,000  Level Denver Center
06:13PM 36.3653 -109.8931 38° Northeast 407 468 39,000  Level Denver Center
06:14PM 36.4514 -109.8094 38° Northeast 401 461 39,000  Level Denver Center
06:15PM 36.5364 -109.7250 39° Northeast 393 452 39,000  Level Denver Center
06:16PM 36.6239 -109.6397 38° Northeast 398 458 39,000  Level Denver Center
06:17PM 36.7286 -109.5372 38° Northeast 400 460 39,000  Level Denver Center
06:18PM 36.8097 -109.4589 38° Northeast 406 467 39,000  Level Denver Center
06:19PM 36.9089 -109.3592 39° Northeast 408 470 39,000  Level Denver Center
06:20PM 36.9964 -109.2731 38° Northeast 411 473 39,000  Level Denver Center
06:21PM 37.0861 -109.1850 38° Northeast 411 473 39,000  Level Denver Center
06:22PM 37.1806 -109.0886 39° Northeast 410 472 39,000  Level Denver Center
06:23PM 37.2806 -108.9872 39° Northeast 413 475 39,000  Level Denver Center
06:24PM 37.3678 -108.9022 38° Northeast 414 476 39,000  Level Denver Center
06:25PM 37.4675 -108.7997 39° Northeast 414 476 39,000  Level Denver Center
06:26PM 37.5558 -108.7125 38° Northeast 420 483 39,000  Level Denver Center
06:27PM 37.6558 -108.6117 39° Northeast 415 478 39,000  Level Denver Center
06:28PM 37.7422 -108.5228 39° Northeast 418 481 39,000  Level Denver Center
06:29PM 37.8419 -108.4236 38° Northeast 411 473 39,000  Level Denver Center
06:30PM 37.9272 -108.3394 38° Northeast 406 467 39,000  Level Denver Center
06:31PM 38.0269 -108.2336 40° Northeast 412 474 39,000  Level Denver Center
06:32PM 38.1150 -108.1389 40° Northeast 424 488 39,000  Level Denver Center
06:33PM 38.2150 -108.0358 39° Northeast 418 481 39,000  Level Denver Center
06:34PM 38.3006 -107.9469 39° Northeast 416 479 39,000  Level Denver Center
06:35PM 38.4006 -107.8444 39° Northeast 414 476 39,000  Level Denver Center
06:36PM 38.4864 -107.7544 39° Northeast 417 480 39,000  Level Denver Center
06:38PM 38.5708 -107.6661 39° Northeast 412 474 39,000  Level Denver Center
06:39PM 38.6725 -107.5572 40° Northeast 422 486 39,000  Level Denver Center
06:40PM 38.7583 -107.4667 39° Northeast 420 483 39,000  Level Denver Center
06:41PM 38.8589 -107.3606 39° Northeast 420 483 39,000  Level Denver Center
06:42PM 38.9447 -107.2703 39° Northeast 419 482 39,000  Level Denver Center
06:43PM 39.0456 -107.1628 40° Northeast 422 486 39,000  Level Denver Center
06:44PM 39.1314 -107.0703 40° Northeast 421 484 39,000  Level Denver Center
06:45PM 39.2308 -106.9633 40° Northeast 419 482 39,000  Level Denver Center
06:46PM 39.3164 -106.8719 40° Northeast 418 481 39,000  Level Denver Center
06:47PM 39.4156 -106.7644 40° Northeast 416 479 39,000  Level Denver Center
06:48PM 39.5003 -106.6736 40° Northeast 414 476 39,000  Level Denver Center
06:49PM 39.5989 -106.5647 40° Northeast 419 482 39,000  Level Denver Center
06:50PM 39.6886 -106.4667 40° Northeast 416 479 39,000  Level Denver Center
06:51PM 39.7717 -106.3792 39° Northeast 413 475 39,000  Level Denver Center
06:52PM 39.8597 -106.2806 41° Northeast 416 479 39,000 -240 Level Denver Center
06:53PM 39.9656 -106.1636 40° Northeast 416 479 38,600 -780 Descending Denver Center
06:54PM 40.0581 -106.0606 40° Northeast 431 496 37,400 -1,260 Descending Denver Center
06:55PM 40.1511 -105.9575 40° Northeast 437 503 36,000 -1,320 Descending Denver Center
06:56PM 40.2394 -105.8589 40° Northeast 422 486 34,700 -1,260 Descending Denver Center
06:57PM 40.3250 -105.7597 41° Northeast 409 471 33,400 -1,800 Descending Denver Center
06:58PM 40.4131 -105.6617 40° Northeast 414 476 31,000 -2,940 Descending Denver Center
06:59PM 40.5242 -105.5361 41° Northeast 434 499 27,400 -3,300 Descending Denver Center
07:00PM 40.6122 -105.4350 41° Northeast 416 479 24,300 -3,000 Descending Denver Center
07:01PM 40.6975 -105.3381 41° Northeast 404 465 21,200 -2,520 Descending Denver Center
07:02PM 40.7758 -105.2467 41° Northeast 379 436 19,200 -2,040 Descending Denver Center
07:03PM 40.8506 -105.1633 40° Northeast 358 412 17,100 -2,580 Descending Denver Center
07:04PM 40.9264 -105.0772 41° Northeast 357 411 13,900 -3,120 Descending Denver Center
07:06PM 41.0080 -104.9685 41° Northeast  Level FlightAware Approximate
07:13PM 41.1500 -104.8000 42° Northeast  Level FlightAware Approximate
07:14PM 41.1556 -104.8105 42° Northeast  Level Estimated
07:15PM 41.1556 -104.8105 42° Northeast  Level Estimated
07:16PM 41.1556 -104.8105 42° Northeast  Level Estimated
07:17PM 41.1556 -104.8105 42° Northeast  Level Estimated
07:18PM 41.1556 -104.8105 42° Northeast  Level Estimated
07:19PM 41.1556 -104.8105 42° Northeast  Level Estimated